Time;durP1;ratioP1;P1;durP2;ratioP2;P2;SDS_P1;SDS_P2;PMS_P1;PMS_P2;Temp;Humidity;BMP_temperature;BMP_pressure;BME280_temperature;BME280_humidity;BME280_pressure;Samples;Min_cycle;Max_cycle;Signal;HPM_P1;HPM_P2
2022/03/06 00:01:16;;;;;;;13.90;8.50;;;0.10;99.90;;;;;;5100031;28;20113;-56
2022/03/06 00:03:44;;;;;;;10.80;7.85;;;0.10;99.90;;;;;;5099487;28;20040;-56
2022/03/06 00:06:10;;;;;;;10.70;8.10;;;0.20;99.90;;;;;;5108699;28;20475;-57
2022/03/06 00:08:36;;;;;;;11.73;7.50;;;0.20;99.90;;;;;;5108697;28;20468;-57
2022/03/06 00:11:02;;;;;;;11.98;7.80;;;0.30;99.90;;;;;;5108118;28;20434;-56
2022/03/06 00:13:27;;;;;;;11.25;7.43;;;0.30;99.90;;;;;;5107889;28;20052;-57
2022/03/06 00:15:53;;;;;;;13.48;8.07;;;0.40;99.90;;;;;;5107004;28;20054;-56
2022/03/06 00:18:19;;;;;;;8.30;6.32;;;0.40;99.90;;;;;;5106981;28;20051;-56
2022/03/06 00:20:45;;;;;;;10.32;7.03;;;0.40;99.90;;;;;;5105117;28;20574;-56
2022/03/06 00:23:10;;;;;;;9.50;7.15;;;0.50;99.90;;;;;;5088008;28;20040;-57
2022/03/06 00:25:36;;;;;;;10.77;7.60;;;0.50;99.90;;;;;;5087787;28;20452;-56
2022/03/06 00:28:02;;;;;;;11.63;6.82;;;0.60;99.90;;;;;;5101173;28;20051;-56
2022/03/06 00:30:28;;;;;;;11.73;7.35;;;0.60;99.90;;;;;;5107933;28;20043;-56
2022/03/06 00:32:54;;;;;;;9.43;8.23;;;0.70;99.90;;;;;;5108158;28;20098;-56
2022/03/06 00:35:22;;;;;;;9.48;6.40;;;0.70;99.90;;;;;;5108527;28;20090;-56
2022/03/06 00:37:48;;;;;;;15.93;7.55;;;0.70;99.90;;;;;;5098370;28;20588;-56
2022/03/06 00:40:14;;;;;;;11.98;7.47;;;0.70;99.90;;;;;;5087946;28;20052;-57
2022/03/06 00:42:39;;;;;;;11.85;6.32;;;0.80;99.90;;;;;;5087816;28;20048;-56
2022/03/06 00:45:06;;;;;;;13.57;6.97;;;0.80;99.90;;;;;;5088148;28;20040;-56
2022/03/06 00:47:31;;;;;;;10.82;6.35;;;0.90;99.90;;;;;;5088108;28;20058;-56
2022/03/06 00:49:57;;;;;;;11.57;6.75;;;0.90;99.90;;;;;;5087675;28;20048;-56
2022/03/06 00:52:23;;;;;;;10.23;6.40;;;0.90;99.90;;;;;;5103421;28;20051;-56
2022/03/06 00:54:49;;;;;;;13.90;6.93;;;1.20;99.90;;;;;;5107298;28;20044;-56
2022/03/06 00:57:15;;;;;;;8.20;6.03;;;0.90;99.90;;;;;;5106358;28;20052;-56
2022/03/06 00:59:40;;;;;;;13.77;6.43;;;1.00;99.90;;;;;;5108388;28;20047;-57
2022/03/06 01:02:06;;;;;;;11.68;6.47;;;1.00;99.90;;;;;;5101334;28;20058;-57
2022/03/06 01:04:33;;;;;;;10.60;6.75;;;1.00;99.90;;;;;;5107645;28;20510;-56
2022/03/06 01:06:59;;;;;;;13.43;5.82;;;1.00;99.90;;;;;;5107262;28;20663;-56
2022/03/06 01:09:25;;;;;;;10.35;6.45;;;1.00;99.90;;;;;;5108099;28;20130;-56
2022/03/06 01:11:51;;;;;;;11.48;6.05;;;1.00;99.90;;;;;;5107048;28;20065;-56
2022/03/06 01:14:17;;;;;;;10.63;5.78;;;1.00;99.90;;;;;;5104947;28;20127;-57
2022/03/06 01:16:43;;;;;;;7.93;5.15;;;1.00;99.90;;;;;;5107283;28;20082;-56
2022/03/06 01:19:09;;;;;;;9.77;5.93;;;1.00;99.90;;;;;;5107402;28;20136;-56
2022/03/06 01:21:35;;;;;;;11.57;6.28;;;1.00;99.90;;;;;;5106652;28;20039;-60
2022/03/06 01:24:00;;;;;;;9.32;5.85;;;1.00;99.90;;;;;;5106987;28;20046;-62
2022/03/06 01:26:26;;;;;;;9.15;6.43;;;1.00;99.90;;;;;;5106471;28;20138;-61
2022/03/06 01:28:52;;;;;;;12.15;6.57;;;1.00;99.90;;;;;;5106936;28;20137;-62
2022/03/06 01:31:18;;;;;;;7.90;5.53;;;1.00;99.90;;;;;;5106373;28;20081;-57
2022/03/06 01:33:43;;;;;;;7.45;5.68;;;1.70;99.90;;;;;;5105443;28;20126;-56
2022/03/06 01:36:09;;;;;;;11.88;5.72;;;1.00;99.90;;;;;;5107133;28;20065;-56
2022/03/06 01:38:35;;;;;;;6.75;5.20;;;1.00;99.90;;;;;;5106986;28;20562;-67
2022/03/06 01:41:01;;;;;;;9.43;5.50;;;1.00;99.90;;;;;;5106230;28;20078;-56
2022/03/06 01:43:27;;;;;;;9.38;5.78;;;1.10;99.90;;;;;;5106342;28;20462;-56
2022/03/06 01:45:52;;;;;;;9.65;5.63;;;2.00;99.90;;;;;;5107154;28;20499;-56
2022/03/06 01:48:18;;;;;;;8.00;5.90;;;1.10;99.90;;;;;;5106967;28;20126;-56
2022/03/06 01:50:44;;;;;;;11.32;6.70;;;1.40;99.90;;;;;;5099119;28;20543;-58
2022/03/06 01:53:12;;;;;;;7.22;5.53;;;1.10;99.90;;;;;;5086469;28;20052;-57
2022/03/06 01:55:38;;;;;;;9.57;4.82;;;1.10;99.90;;;;;;5086471;28;20489;-58
2022/03/06 01:58:08;;;;;;;8.02;5.35;;;1.00;99.90;;;;;;5096964;28;20055;-59
2022/03/06 02:00:38;;;;;;;8.02;5.43;;;2.10;99.90;;;;;;5100400;28;20050;-58
2022/03/06 02:03:04;;;;;;;6.50;4.63;;;1.10;99.90;;;;;;5092389;28;20044;-57
2022/03/06 02:05:30;;;;;;;6.47;4.45;;;1.10;99.90;;;;;;5109705;28;20090;-59
2022/03/06 02:07:56;;;;;;;9.27;5.57;;;1.20;99.90;;;;;;5110842;28;20528;-60
2022/03/06 02:10:22;;;;;;;8.93;5.47;;;1.20;99.90;;;;;;5110436;28;20047;-59
2022/03/06 02:12:48;;;;;;;8.48;5.72;;;1.20;99.90;;;;;;5109688;28;20056;-56
2022/03/06 02:15:16;;;;;;;9.38;5.50;;;1.20;99.90;;;;;;5110810;28;20043;-59
2022/03/06 02:17:43;;;;;;;7.43;6.10;;;1.20;99.90;;;;;;5110998;27;20463;-56
2022/03/06 02:20:17;;;;;;;7.88;5.20;;;1.20;99.90;;;;;;5110159;28;20074;-55
2022/03/06 02:23:03;;;;;;;7.68;4.50;;;1.70;99.90;;;;;;5090714;28;20105;-56
2022/03/06 02:25:30;;;;;;;8.45;5.35;;;1.20;99.90;;;;;;5091048;28;20374;-57
2022/03/06 02:27:58;;;;;;;8.70;5.63;;;1.20;99.90;;;;;;5109446;28;20513;-59
2022/03/06 02:30:27;;;;;;;5.78;5.00;;;1.20;99.90;;;;;;5092133;28;20401;-60
2022/03/06 02:32:53;;;;;;;8.13;5.13;;;1.30;99.90;;;;;;5110002;28;20861;-61
2022/03/06 02:35:21;;;;;;;7.60;4.88;;;1.20;99.90;;;;;;5110534;28;20051;-58
2022/03/06 02:37:47;;;;;;;6.85;5.20;;;1.60;99.90;;;;;;5110408;28;20161;-56
2022/03/06 02:40:15;;;;;;;12.75;5.13;;;1.30;99.90;;;;;;5109228;28;20039;-58
2022/03/06 02:42:43;;;;;;;10.15;5.72;;;1.20;99.90;;;;;;5108899;28;20442;-56
2022/03/06 02:45:13;;;;;;;9.70;5.43;;;1.30;99.90;;;;;;5108681;28;20405;-56
2022/03/06 02:47:39;;;;;;;9.75;5.18;;;1.30;99.90;;;;;;5110240;28;20071;-56
2022/03/06 02:50:08;;;;;;;6.93;5.00;;;1.20;99.90;;;;;;5109833;28;20607;-61
2022/03/06 02:52:34;;;;;;;5.53;4.25;;;1.20;99.90;;;;;;5109742;28;20047;-56
2022/03/06 02:54:59;;;;;;;6.22;4.22;;;1.20;99.90;;;;;;5108881;28;20046;-60
2022/03/06 02:57:25;;;;;;;11.20;5.43;;;1.20;99.90;;;;;;5109868;28;20039;-56
2022/03/06 02:59:55;;;;;;;8.40;4.38;;;1.20;99.90;;;;;;5109744;28;20497;-56
2022/03/06 03:02:20;;;;;;;7.80;4.30;;;1.40;99.90;;;;;;5100737;28;20134;-56
2022/03/06 03:04:47;;;;;;;10.90;5.20;;;1.20;99.90;;;;;;5103411;28;20119;-57
2022/03/06 03:07:12;;;;;;;9.68;3.80;;;1.20;99.90;;;;;;5109306;28;20641;-56
2022/03/06 03:09:38;;;;;;;5.43;3.53;;;1.20;99.90;;;;;;5110286;28;20044;-56
2022/03/06 03:12:04;;;;;;;4.88;3.03;;;1.10;99.90;;;;;;5109175;28;20042;-56
2022/03/06 03:14:32;;;;;;;7.03;3.67;;;1.10;99.90;;;;;;5109887;28;20047;-57
2022/03/06 03:17:01;;;;;;;7.88;3.50;;;1.10;99.90;;;;;;5109136;28;20056;-59
2022/03/06 03:19:27;;;;;;;7.10;3.70;;;1.00;99.90;;;;;;5110348;28;20056;-56
2022/03/06 03:21:53;;;;;;;5.22;3.78;;;1.00;99.90;;;;;;5093223;28;20055;-57
2022/03/06 03:24:19;;;;;;;7.72;3.40;;;1.10;99.90;;;;;;5089656;28;20572;-56
2022/03/06 03:26:45;;;;;;;6.88;3.25;;;0.90;99.90;;;;;;5091647;28;20147;-57
2022/03/06 03:29:10;;;;;;;8.27;4.15;;;0.90;99.90;;;;;;5109866;28;20423;-59
2022/03/06 03:31:36;;;;;;;8.70;3.55;;;0.80;99.90;;;;;;5109019;28;20052;-56
2022/03/06 03:34:02;;;;;;;5.57;3.63;;;0.80;99.90;;;;;;5107880;28;20167;-63
2022/03/06 03:36:29;;;;;;;6.35;3.42;;;0.70;99.90;;;;;;5109642;27;20524;-59
2022/03/06 03:38:54;;;;;;;6.88;3.00;;;0.70;99.90;;;;;;5110167;28;20052;-59
2022/03/06 03:41:22;;;;;;;5.43;3.25;;;0.60;99.90;;;;;;5109986;28;20089;-59
2022/03/06 03:43:48;;;;;;;9.50;4.20;;;0.60;99.90;;;;;;5110916;28;20051;-56
2022/03/06 03:46:13;;;;;;;6.80;3.67;;;0.60;99.90;;;;;;5110679;28;20047;-56
2022/03/06 03:48:39;;;;;;;6.25;3.95;;;0.50;99.90;;;;;;5110932;28;20400;-58
2022/03/06 03:51:05;;;;;;;6.32;3.53;;;0.50;99.90;;;;;;5099829;28;20383;-57
2022/03/06 03:53:30;;;;;;;8.32;3.80;;;0.50;99.90;;;;;;5090178;28;20060;-56
2022/03/06 03:55:56;;;;;;;6.70;3.75;;;0.50;99.90;;;;;;5089924;28;20052;-56
2022/03/06 03:58:22;;;;;;;5.13;3.63;;;0.50;99.90;;;;;;5102876;28;20084;-56
2022/03/06 04:00:54;;;;;;;6.47;3.47;;;0.40;99.90;;;;;;5103739;28;20092;-57
2022/03/06 04:03:20;;;;;;;6.18;3.22;;;0.40;99.90;;;;;;5098640;28;20052;-56
2022/03/06 04:05:46;;;;;;;5.65;4.10;;;0.50;99.90;;;;;;5110152;28;20089;-56
2022/03/06 04:08:11;;;;;;;7.55;3.72;;;0.40;99.90;;;;;;5110393;28;20047;-56
2022/03/06 04:10:37;;;;;;;4.18;2.55;;;0.40;99.90;;;;;;5109635;28;20481;-67
2022/03/06 04:13:03;;;;;;;5.53;3.47;;;0.40;99.90;;;;;;5109730;28;20095;-70
2022/03/06 04:15:29;;;;;;;3.28;2.90;;;0.40;99.90;;;;;;5110449;28;20053;-66
2022/03/06 04:17:54;;;;;;;6.97;3.63;;;0.40;99.90;;;;;;5109982;28;20051;-67
2022/03/06 04:20:21;;;;;;;4.85;2.65;;;0.30;99.90;;;;;;5107539;28;20043;-56
2022/03/06 04:22:46;;;;;;;5.82;3.55;;;0.30;99.90;;;;;;5089878;28;20089;-58
2022/03/06 04:25:12;;;;;;;5.43;3.10;;;0.30;99.90;;;;;;5089887;28;20469;-56
2022/03/06 04:27:38;;;;;;;5.20;2.95;;;0.30;99.90;;;;;;5098355;28;20133;-56
2022/03/06 04:30:05;;;;;;;5.00;2.67;;;0.30;99.90;;;;;;5109724;28;20074;-56
2022/03/06 04:32:30;;;;;;;8.23;3.35;;;0.20;99.90;;;;;;5096513;28;20413;-57
2022/03/06 04:34:56;;;;;;;4.50;2.67;;;0.20;99.90;;;;;;5107882;28;20058;-56
2022/03/06 04:37:22;;;;;;;4.00;2.90;;;0.20;99.90;;;;;;5107295;28;20047;-57
2022/03/06 04:39:48;;;;;;;8.25;3.85;;;0.10;99.90;;;;;;5086685;28;20390;-56
2022/03/06 04:42:13;;;;;;;5.97;3.53;;;0.10;99.90;;;;;;5088839;28;20131;-57
2022/03/06 04:44:39;;;;;;;4.63;3.20;;;0.00;99.90;;;;;;5088881;28;20123;-56
2022/03/06 04:47:05;;;;;;;3.42;3.05;;;0.00;99.90;;;;;;5088854;28;20083;-56
2022/03/06 04:49:31;;;;;;;4.97;2.72;;;0.00;99.90;;;;;;5088342;28;20461;-56
2022/03/06 04:51:57;;;;;;;5.68;3.30;;;-0.10;99.90;;;;;;5103017;28;20067;-56
2022/03/06 04:54:23;;;;;;;5.75;2.58;;;-0.10;99.90;;;;;;5106818;28;20058;-57
2022/03/06 04:56:48;;;;;;;4.75;3.08;;;-0.20;99.90;;;;;;5109021;28;20047;-56
2022/03/06 04:59:14;;;;;;;3.67;2.38;;;-0.20;99.90;;;;;;5089922;28;20131;-56
2022/03/06 05:01:42;;;;;;;6.03;2.72;;;-0.30;99.90;;;;;;5096549;28;20048;-56
2022/03/06 05:04:09;;;;;;;4.22;2.50;;;-0.30;99.90;;;;;;5103343;28;20047;-56
2022/03/06 05:06:35;;;;;;;4.28;2.50;;;-0.30;99.90;;;;;;5107914;28;20086;-59
2022/03/06 05:09:00;;;;;;;5.32;2.45;;;-0.40;99.90;;;;;;5108700;28;20075;-59
2022/03/06 05:11:26;;;;;;;7.28;4.07;;;-0.40;99.90;;;;;;5107839;28;20051;-56
2022/03/06 05:13:52;;;;;;;6.97;2.67;;;-0.40;99.90;;;;;;5108811;28;20461;-59
2022/03/06 05:16:18;;;;;;;4.93;2.63;;;-0.40;99.90;;;;;;5108730;28;20059;-59
2022/03/06 05:18:43;;;;;;;3.90;2.75;;;-0.40;99.90;;;;;;5108255;28;20047;-59
2022/03/06 05:21:09;;;;;;;5.22;2.88;;;-0.50;99.90;;;;;;5097977;28;20036;-57
2022/03/06 05:23:35;;;;;;;3.80;2.10;;;-0.50;99.90;;;;;;5088017;28;20044;-56
2022/03/06 05:26:01;;;;;;;6.45;2.75;;;-0.60;99.90;;;;;;5088242;28;20648;-56
2022/03/06 05:28:27;;;;;;;8.73;3.15;;;-0.60;99.90;;;;;;5104661;28;20397;-56
2022/03/06 05:30:53;;;;;;;4.38;2.63;;;-0.60;99.90;;;;;;5107594;28;20046;-57
2022/03/06 05:33:19;;;;;;;5.38;2.70;;;-0.60;99.90;;;;;;5108017;28;20653;-56
2022/03/06 05:35:46;;;;;;;5.78;2.17;;;-0.60;99.90;;;;;;5106677;28;20501;-56
2022/03/06 05:38:12;;;;;;;4.93;2.65;;;-0.60;99.90;;;;;;5108125;28;20382;-58
2022/03/06 05:40:37;;;;;;;4.30;3.13;;;1.30;99.90;;;;;;5107147;28;20054;-57
2022/03/06 05:43:03;;;;;;;8.52;2.75;;;-0.10;99.90;;;;;;5108363;28;20044;-56
2022/03/06 05:45:29;;;;;;;4.90;2.85;;;-0.70;99.90;;;;;;5108231;28;20048;-56
2022/03/06 05:47:55;;;;;;;4.97;2.13;;;-0.80;99.90;;;;;;5106769;28;20088;-56
2022/03/06 05:50:21;;;;;;;6.00;2.50;;;-0.80;99.90;;;;;;5104271;28;20047;-59
2022/03/06 05:52:48;;;;;;;11.35;3.10;;;-0.80;99.90;;;;;;5086249;28;20059;-56
2022/03/06 05:55:15;;;;;;;3.47;2.05;;;-0.80;99.90;;;;;;5087671;28;20048;-59
2022/03/06 05:57:41;;;;;;;2.90;2.50;;;-0.90;99.90;;;;;;5095039;28;20097;-58
2022/03/06 06:00:08;;;;;;;7.35;2.65;;;-0.90;99.90;;;;;;5097792;28;20410;-60
2022/03/06 06:02:38;;;;;;;5.03;2.28;;;-0.90;99.90;;;;;;5087489;28;20375;-56
2022/03/06 06:05:05;;;;;;;5.80;2.00;;;-0.90;99.90;;;;;;5107996;28;20098;-56
2022/03/06 06:07:31;;;;;;;12.32;2.83;;;-0.90;99.90;;;;;;5107811;28;20043;-57
2022/03/06 06:09:57;;;;;;;4.93;2.70;;;-1.20;99.90;;;;;;5105115;28;20104;-56
2022/03/06 06:12:22;;;;;;;5.20;2.75;;;-1.00;99.90;;;;;;5105625;28;20055;-56
2022/03/06 06:14:48;;;;;;;4.88;2.58;;;-1.00;99.90;;;;;;5108216;28;20071;-62
2022/03/06 06:17:14;;;;;;;4.38;2.65;;;-1.00;99.90;;;;;;5107502;28;20054;-60
2022/03/06 06:19:40;;;;;;;3.97;2.53;;;-1.00;99.90;;;;;;5098674;28;20048;-55
2022/03/06 06:22:05;;;;;;;4.22;2.58;;;-1.00;99.90;;;;;;5091070;28;20036;-57
2022/03/06 06:24:31;;;;;;;4.65;2.80;;;-1.00;99.90;;;;;;5107936;28;20378;-56
2022/03/06 06:26:57;;;;;;;8.48;2.95;;;-1.00;99.90;;;;;;5107931;28;20039;-56
2022/03/06 06:29:23;;;;;;;3.90;2.15;;;-1.00;99.90;;;;;;5106861;28;20489;-56
2022/03/06 06:31:51;;;;;;;3.47;2.67;;;-1.00;99.90;;;;;;5107893;28;20055;-55
2022/03/06 06:34:17;;;;;;;4.43;2.50;;;-1.00;99.90;;;;;;5107310;28;20059;-56
2022/03/06 06:36:43;;;;;;;4.93;2.70;;;-1.00;99.90;;;;;;5106554;28;20039;-70
2022/03/06 06:39:12;;;;;;;4.82;2.35;;;-1.00;99.90;;;;;;5107030;28;20047;-67
2022/03/06 06:41:39;;;;;;;3.50;2.65;;;-0.90;99.90;;;;;;5107740;28;20579;-61
2022/03/06 06:44:05;;;;;;;5.03;2.60;;;-0.90;99.90;;;;;;5107684;28;20567;-60
2022/03/06 06:46:31;;;;;;;4.93;2.70;;;-0.90;99.90;;;;;;5107711;28;20047;-63
2022/03/06 06:48:56;;;;;;;3.88;2.45;;;-0.90;99.90;;;;;;5094650;28;20039;-64
2022/03/06 06:51:22;;;;;;;4.45;2.78;;;-0.80;99.90;;;;;;5089311;28;20043;-64
2022/03/06 06:53:48;;;;;;;3.33;2.60;;;-0.80;99.90;;;;;;5097684;28;20062;-65
2022/03/06 06:56:14;;;;;;;6.50;3.75;;;-0.70;99.90;;;;;;5111129;28;20044;-62
2022/03/06 06:58:42;;;;;;;5.85;2.90;;;-0.70;99.90;;;;;;5109334;28;20048;-56
2022/03/06 07:01:08;;;;;;;5.65;3.03;;;-0.60;99.90;;;;;;5092141;28;20105;-56
2022/03/06 07:03:34;;;;;;;8.23;3.20;;;-0.60;99.90;;;;;;5101045;28;20044;-56
2022/03/06 07:05:59;;;;;;;3.33;2.58;;;-0.50;99.90;;;;;;5109834;28;20542;-56
2022/03/06 07:08:25;;;;;;;4.68;3.25;;;-0.40;99.90;;;;;;5110020;28;20105;-56
2022/03/06 07:10:51;;;;;;;3.63;2.22;;;-0.30;99.90;;;;;;5098007;28;20040;-58
2022/03/06 07:13:17;;;;;;;4.07;2.65;;;-0.30;99.90;;;;;;5111298;28;20051;-59
2022/03/06 07:15:43;;;;;;;3.33;2.47;;;-0.10;99.90;;;;;;5110638;28;20123;-59
2022/03/06 07:18:08;;;;;;;4.07;3.00;;;1.30;99.90;;;;;;5109320;28;20059;-66
2022/03/06 07:20:34;;;;;;;4.78;2.65;;;0.10;99.90;;;;;;5092403;28;20043;-69
2022/03/06 07:23:00;;;;;;;3.90;2.33;;;0.20;99.90;;;;;;5091082;28;20052;-59
2022/03/06 07:25:26;;;;;;;5.82;2.47;;;0.30;99.90;;;;;;5110874;27;20067;-58
2022/03/06 07:27:53;;;;;;;3.47;2.05;;;0.40;99.90;;;;;;5099881;28;20047;-59
2022/03/06 07:30:19;;;;;;;2.30;2.03;;;1.50;99.90;;;;;;5102869;28;20052;-55
2022/03/06 07:32:47;;;;;;;3.70;2.00;;;0.60;99.90;;;;;;5106768;28;20048;-65
2022/03/06 07:35:15;;;;;;;2.47;1.90;;;0.70;99.90;;;;;;5109138;28;20130;-58
2022/03/06 07:37:41;;;;;;;2.90;2.30;;;1.20;99.90;;;;;;5109554;28;20130;-61
2022/03/06 07:40:09;;;;;;;4.45;2.30;;;0.90;99.90;;;;;;5100098;27;20046;-58
2022/03/06 07:42:35;;;;;;;2.40;1.70;;;0.90;99.90;;;;;;5087990;28;20422;-56
2022/03/06 07:45:02;;;;;;;3.83;1.85;;;0.90;99.90;;;;;;5097775;28;20362;-56
2022/03/06 07:47:28;;;;;;;4.93;1.88;;;1.00;99.90;;;;;;5102084;27;20123;-58
2022/03/06 07:49:53;;;;;;;4.13;2.22;;;1.10;99.90;;;;;;5101837;28;20459;-56
2022/03/06 07:52:19;;;;;;;3.60;2.10;;;1.20;99.90;;;;;;5089137;28;20473;-56
2022/03/06 07:54:45;;;;;;;5.15;1.77;;;1.40;99.90;;;;;;5094434;28;20044;-68
2022/03/06 07:57:13;;;;;;;3.67;1.90;;;1.70;99.90;;;;;;5108738;28;20039;-55
2022/03/06 07:59:39;;;;;;;2.50;1.83;;;1.80;99.90;;;;;;5096329;28;20047;-56
2022/03/06 08:02:05;;;;;;;3.13;1.83;;;2.00;99.90;;;;;;5109715;28;20111;-55
2022/03/06 08:04:30;;;;;;;4.55;2.30;;;2.40;99.90;;;;;;5107066;28;20040;-57
2022/03/06 08:06:56;;;;;;;4.10;2.15;;;2.30;99.90;;;;;;5089448;28;20044;-60
2022/03/06 08:09:24;;;;;;;4.30;2.03;;;2.50;99.90;;;;;;5105310;28;20075;-57
2022/03/06 08:11:51;;;;;;;7.05;2.25;;;2.60;99.90;;;;;;5089216;28;20091;-58
2022/03/06 08:14:17;;;;;;;2.40;2.00;;;2.80;99.90;;;;;;5092865;28;20047;-58
2022/03/06 08:16:43;;;;;;;2.90;2.00;;;4.40;99.90;;;;;;5102219;27;20047;-56
2022/03/06 08:19:08;;;;;;;2.58;1.77;;;3.20;99.90;;;;;;5096208;28;20050;-56
2022/03/06 08:21:34;;;;;;;3.58;1.73;;;3.40;99.90;;;;;;5093132;28;20131;-57
2022/03/06 08:24:00;;;;;;;3.40;1.92;;;3.50;99.90;;;;;;5089059;28;20044;-57
2022/03/06 08:26:26;;;;;;;4.20;2.00;;;3.70;99.90;;;;;;5102936;28;20393;-56
2022/03/06 08:28:52;;;;;;;3.60;2.00;;;3.80;99.90;;;;;;5094021;28;20549;-57
2022/03/06 08:31:18;;;;;;;3.90;1.63;;;4.00;99.90;;;;;;5093904;28;20047;-57
2022/03/06 08:33:44;;;;;;;1.73;1.60;;;4.00;99.90;;;;;;5090705;28;20422;-56
2022/03/06 08:36:10;;;;;;;4.40;1.70;;;4.10;99.90;;;;;;5089864;28;20056;-56
2022/03/06 08:38:36;;;;;;;2.42;1.60;;;4.20;99.90;;;;;;5096650;28;20108;-58
2022/03/06 08:41:02;;;;;;;2.40;1.58;;;4.30;99.90;;;;;;5103836;28;20040;-57
2022/03/06 08:43:27;;;;;;;5.82;1.73;;;4.30;99.90;;;;;;5105363;28;20096;-58
2022/03/06 08:45:56;;;;;;;7.40;4.57;;;4.40;99.90;;;;;;5093845;28;20592;-56
2022/03/06 08:48:24;;;;;;;10.10;5.40;;;4.50;99.90;;;;;;5099953;28;20051;-56
2022/03/06 08:50:50;;;;;;;8.55;5.75;;;4.70;99.90;;;;;;5093154;28;20093;-57
2022/03/06 08:53:17;;;;;;;6.95;4.55;;;4.80;99.90;;;;;;5089859;28;20043;-56
2022/03/06 08:55:43;;;;;;;6.47;3.63;;;5.00;99.90;;;;;;5095819;28;20051;-56
2022/03/06 08:58:11;;;;;;;8.60;2.80;;;5.20;99.90;;;;;;5100094;28;20044;-57
2022/03/06 09:00:37;;;;;;;5.78;2.33;;;5.40;99.90;;;;;;5087886;28;20398;-56
2022/03/06 09:03:03;;;;;;;3.53;2.08;;;5.60;99.90;;;;;;5094113;28;20046;-56
2022/03/06 09:05:29;;;;;;;4.20;1.95;;;5.60;99.90;;;;;;5091277;28;20044;-57
2022/03/06 09:07:56;;;;;;;4.80;2.88;;;5.90;99.90;;;;;;5097230;28;20386;-57
2022/03/06 09:10:22;;;;;;;5.15;2.08;;;6.10;99.90;;;;;;5095924;28;20121;-56
2022/03/06 09:12:50;;;;;;;2.80;1.70;;;6.30;99.90;;;;;;5090509;28;20039;-56
2022/03/06 09:15:16;;;;;;;2.08;1.48;;;6.70;99.90;;;;;;5092373;28;20047;-55
2022/03/06 09:17:42;;;;;;;4.03;1.42;;;7.00;99.90;;;;;;5091149;28;20044;-57
2022/03/06 09:20:17;;;;;;;2.40;1.70;;;7.30;99.90;;;;;;5090926;28;20044;-56
2022/03/06 09:22:48;;;;;;;2.58;1.63;;;7.50;99.90;;;;;;5087765;28;20535;-56
2022/03/06 09:25:17;;;;;;;3.40;1.75;;;7.80;99.90;;;;;;5089616;28;20048;-56
2022/03/06 09:27:43;;;;;;;3.33;1.75;;;8.20;99.90;;;;;;5090983;28;20143;-57
2022/03/06 09:30:11;;;;;;;1.67;1.35;;;8.60;99.90;;;;;;5087121;28;20166;-55
2022/03/06 09:32:37;;;;;;;2.50;1.60;;;9.00;99.90;;;;;;5083713;28;20113;-58
2022/03/06 09:35:05;;;;;;;3.13;1.67;;;9.20;99.90;;;;;;5085217;28;20100;-56
2022/03/06 09:37:33;;;;;;;3.30;2.03;;;9.40;99.90;;;;;;5088937;28;20603;-57
2022/03/06 09:39:59;;;;;;;2.15;1.90;;;9.70;99.90;;;;;;5088132;28;20128;-57
2022/03/06 09:42:25;;;;;;;3.85;1.73;;;9.90;99.90;;;;;;5090521;28;20063;-62
2022/03/06 09:44:51;;;;;;;5.53;2.40;;;10.10;99.90;;;;;;5092665;28;20048;-59
2022/03/06 09:47:22;;;;;;;3.90;1.60;;;10.30;99.90;;;;;;5084421;28;20048;-56
2022/03/06 09:49:48;;;;;;;1.85;1.65;;;10.40;99.90;;;;;;5084592;28;20080;-57
2022/03/06 09:52:13;;;;;;;2.53;1.70;;;10.40;99.90;;;;;;5084212;28;20079;-60
2022/03/06 09:54:39;;;;;;;3.10;1.40;;;10.60;99.90;;;;;;5084294;28;20052;-59
2022/03/06 09:57:06;;;;;;;2.50;1.55;;;10.70;99.90;;;;;;5086833;28;20036;-56
2022/03/06 09:59:32;;;;;;;2.05;1.25;;;10.80;99.90;;;;;;5094344;28;20087;-59
2022/03/06 10:02:02;;;;;;;2.35;1.50;;;10.90;99.80;;;;;;5090668;28;20040;-56
2022/03/06 10:04:30;;;;;;;3.10;1.35;;;11.10;99.90;;;;;;5096512;28;20043;-57
2022/03/06 10:07:03;;;;;;;1.08;0.98;;;11.00;99.90;;;;;;5098500;28;20039;-55
2022/03/06 10:09:30;;;;;;;3.63;1.63;;;10.70;99.40;;;;;;5098144;28;20039;-56
2022/03/06 10:11:56;;;;;;;3.33;1.38;;;11.20;99.90;;;;;;5100929;28;20047;-56
2022/03/06 10:14:38;;;;;;;1.92;1.20;;;11.50;98.10;;;;;;5095759;28;20105;-60
2022/03/06 10:17:17;;;;;;;3.63;1.98;;;12.30;97.60;;;;;;5096691;28;20484;-58
2022/03/06 10:19:52;;;;;;;1.65;1.27;;;11.50;97.00;;;;;;5091932;28;20445;-57
2022/03/06 10:22:19;;;;;;;2.63;1.52;;;11.60;97.50;;;;;;5104076;28;20087;-56
2022/03/06 10:24:50;;;;;;;4.03;1.55;;;11.60;99.00;;;;;;5089191;28;20048;-56
2022/03/06 10:27:16;;;;;;;3.35;1.55;;;11.50;98.20;;;;;;5094426;28;20124;-58
2022/03/06 10:29:42;;;;;;;1.42;1.20;;;11.60;98.80;;;;;;5101923;28;20056;-56
2022/03/06 10:32:08;;;;;;;3.85;1.65;;;11.80;98.70;;;;;;5084654;28;20040;-58
2022/03/06 10:34:40;;;;;;;1.88;1.30;;;11.90;98.50;;;;;;5087513;28;20538;-56
2022/03/06 10:37:11;;;;;;;2.55;1.17;;;12.00;97.00;;;;;;5099524;28;20083;-57
2022/03/06 10:39:45;;;;;;;4.05;1.60;;;12.20;98.50;;;;;;5100459;28;20520;-56
2022/03/06 10:42:11;;;;;;;1.95;1.33;;;12.00;97.00;;;;;;5105010;28;20513;-56
2022/03/06 10:44:47;;;;;;;2.85;1.63;;;11.70;95.40;;;;;;5100561;28;20055;-56
2022/03/06 10:47:13;;;;;;;3.20;1.65;;;11.70;96.90;;;;;;5101925;28;20425;-56
2022/03/06 10:49:39;;;;;;;2.83;1.73;;;11.90;98.30;;;;;;5088572;28;20401;-56
2022/03/06 10:52:21;;;;;;;1.80;1.38;;;12.00;97.30;;;;;;5103780;27;20070;-58
2022/03/06 10:54:55;;;;;;;3.08;1.55;;;12.30;95.60;;;;;;5101135;28;20860;-59
2022/03/06 10:57:21;;;;;;;4.82;2.85;;;12.20;94.00;;;;;;5097927;28;20046;-56
2022/03/06 10:59:49;;;;;;;4.18;1.80;;;11.40;97.30;;;;;;5105373;28;20044;-57
2022/03/06 11:02:15;;;;;;;4.53;1.80;;;12.00;97.50;;;;;;5100339;28;20205;-58
2022/03/06 11:04:45;;;;;;;3.45;1.50;;;12.40;97.40;;;;;;5098348;28;20066;-56
2022/03/06 11:07:11;;;;;;;1.83;1.42;;;12.80;96.60;;;;;;5104162;28;20035;-56
2022/03/06 11:09:38;;;;;;;4.20;2.13;;;12.80;97.10;;;;;;5103103;28;20075;-63
2022/03/06 11:12:04;;;;;;;1.95;1.10;;;12.40;95.40;;;;;;5091632;28;20133;-56
2022/03/06 11:14:32;;;;;;;5.53;2.00;;;12.00;97.60;;;;;;5106866;28;20056;-63
2022/03/06 11:16:58;;;;;;;2.38;1.70;;;12.60;96.60;;;;;;5101839;28;20048;-60
2022/03/06 11:19:25;;;;;;;3.00;1.60;;;12.40;96.10;;;;;;5096744;28;20035;-56
2022/03/06 11:22:07;;;;;;;4.38;1.80;;;12.50;97.00;;;;;;5092269;28;20055;-56
2022/03/06 11:24:36;;;;;;;1.58;1.42;;;12.60;94.80;;;;;;5096950;28;20039;-58
2022/03/06 11:27:30;;;;;;;2.97;1.70;;;12.80;95.60;;;;;;5103570;28;20051;-56
2022/03/06 11:30:09;;;;;;;2.15;1.33;;;12.00;94.70;;;;;;5095634;28;20393;-58
2022/03/06 11:32:36;;;;;;;4.93;2.10;;;12.60;95.20;;;;;;5104371;28;20058;-56
2022/03/06 11:35:10;;;;;;;4.05;1.98;;;12.40;93.70;;;;;;5096509;28;20056;-56
2022/03/06 11:37:56;;;;;;;2.03;1.70;;;12.30;96.30;;;;;;5106197;28;20465;-58
2022/03/06 11:40:48;;;;;;;3.65;2.35;;;12.10;94.50;;;;;;5098855;28;20498;-56
2022/03/06 11:43:29;;;;;;;5.80;2.25;;;13.50;93.80;;;;;;5105460;28;20064;-56
2022/03/06 11:46:03;;;;;;;1.70;1.13;;;14.50;94.00;;;;;;5090948;28;20048;-57
2022/03/06 11:48:32;;;;;;;2.55;1.70;;;15.60;89.20;;;;;;5102069;28;20055;-56
2022/03/06 11:51:20;;;;;;;3.30;1.52;;;13.40;91.10;;;;;;5097870;28;20489;-56
2022/03/06 11:53:53;;;;;;;2.70;1.77;;;15.00;91.50;;;;;;5100866;28;20039;-57
2022/03/06 11:56:31;;;;;;;2.22;1.60;;;15.60;89.40;;;;;;5095378;28;20051;-56
2022/03/06 11:59:00;;;;;;;3.83;1.83;;;16.10;89.90;;;;;;5094704;28;20040;-56
2022/03/06 12:01:27;;;;;;;4.05;2.13;;;14.20;91.20;;;;;;5090634;28;20044;-57
2022/03/06 12:04:02;;;;;;;3.40;1.88;;;13.60;92.80;;;;;;5098668;28;20067;-56
2022/03/06 12:06:28;;;;;;;2.25;1.42;;;14.00;91.20;;;;;;5097499;28;20074;-57
2022/03/06 12:08:54;;;;;;;2.55;1.45;;;13.70;92.40;;;;;;5104791;28;20079;-56
2022/03/06 12:11:21;;;;;;;4.82;2.00;;;13.70;91.50;;;;;;5091102;28;20409;-56
2022/03/06 12:13:50;;;;;;;4.63;1.73;;;13.50;93.00;;;;;;5105004;28;20086;-57
2022/03/06 12:16:17;;;;;;;3.92;2.13;;;14.80;90.70;;;;;;5094565;28;20063;-56
2022/03/06 12:19:02;;;;;;;2.33;1.50;;;13.20;92.40;;;;;;5106517;28;20440;-56
2022/03/06 12:21:37;;;;;;;4.60;1.58;;;13.00;92.60;;;;;;5087809;28;20079;-56
2022/03/06 12:24:10;;;;;;;2.10;1.85;;;13.40;93.00;;;;;;5102772;27;20052;-56
2022/03/06 12:26:44;;;;;;;2.83;1.48;;;13.50;92.70;;;;;;5096145;28;20493;-56
2022/03/06 12:29:30;;;;;;;;;;;13.70;92.50;;;;;;5101325;28;20043;-57
2022/03/06 12:31:55;;;;;;;4.82;1.98;;;14.40;91.20;;;;;;5092420;28;20014;-56
2022/03/06 12:34:40;;;;;;;3.42;2.15;;;12.80;92.70;;;;;;5102899;28;20069;-56
2022/03/06 12:37:07;;;;;;;6.15;2.17;;;12.20;92.80;;;;;;5099158;28;20474;-57
2022/03/06 12:39:35;;;;;;;3.90;2.40;;;12.00;94.20;;;;;;5096851;28;20489;-57
2022/03/06 12:42:01;;;;;;;2.13;1.52;;;11.70;94.00;;;;;;5094845;28;20047;-56
2022/03/06 12:44:30;;;;;;;3.78;1.95;;;12.10;94.60;;;;;;5098499;28;20044;-56
2022/03/06 12:46:56;;;;;;;2.67;1.88;;;12.20;94.70;;;;;;5100362;28;20096;-57
2022/03/06 12:49:23;;;;;;;3.47;2.15;;;12.40;94.00;;;;;;5096009;28;20078;-56
2022/03/06 12:51:51;;;;;;;11.50;2.67;;;11.80;94.60;;;;;;5089100;28;20126;-56
2022/03/06 12:54:24;;;;;;;6.10;2.13;;;11.80;95.00;;;;;;5086699;28;20040;-57